This is the latest recevied weather packets stored in our database for station/object EA3ABN-1. If no packets are shown the sender has not sent any weather packets the latest 10 day(s).
| Time | Temp. | Humidity | Pressure | Rain* | Wind** | Luminosity | Snow |
|---|---|---|---|---|---|---|---|
| 1777574387 | 28.89° C | 31% | 1013.9 hPa | - | - | - | - |
| 1777572286 | 29.44° C | 32% | 1013.5 hPa | - | - | - | - |
| 1777572003 | 30° C | 32% | 1013.3 hPa | - | - | - | - |
| 1777571403 | 30° C | 32% | 1013.3 hPa | - | - | - | - |
| 1777571086 | 30° C | 32% | 1013.1 hPa | - | - | - | - |
| 1777567486 | 31.11° C | 32% | 1012.9 hPa | - | - | - | - |
| 1777567186 | 31.67° C | 31% | 1012.8 hPa | - | - | - | - |
| 1777565986 | 32.22° C | 32% | 1013 hPa | - | - | - | - |
| 1777560286 | 33.33° C | 32% | 1012.5 hPa | - | - | - | - |
| 1777559086 | 32.78° C | 32% | 1012.5 hPa | - | - | - | - |
| 1777557586 | 31.67° C | 32% | 1012.8 hPa | - | - | - | - |
| 1777557286 | 31.67° C | 32% | 1012.8 hPa | - | - | - | - |
| 1777556686 | 31.11° C | 32% | 1012.9 hPa | - | - | - | - |
| 1777556402 | 31.11° C | 32% | 1012.9 hPa | - | - | - | - |
| 1777554886 | 31.11° C | 32% | 1013.2 hPa | - | - | - | - |
| 1777553386 | 30.56° C | 32% | 1013.2 hPa | - | - | - | - |
| 1777550086 | 30° C | 32% | 1013.5 hPa | - | - | - | - |
| 1777546801 | 29.44° C | 32% | 1013.8 hPa | - | - | - | - |
| 1777545886 | 29.44° C | 33% | 1013.8 hPa | - | - | - | - |
| 1777544986 | 28.89° C | 32% | 1013.8 hPa | - | - | - | - |
| 1777542286 | 27.78° C | 33% | 1013.9 hPa | - | - | - | - |
| 1777541385 | 27.78° C | 32% | 1013.6 hPa | - | - | - | - |
| 1777541086 | 27.78° C | 32% | 1013.7 hPa | - | - | - | - |
| 1777540486 | 27.78° C | 32% | 1013.6 hPa | - | - | - | - |
| 1777538985 | 26.67° C | 34% | 1013.5 hPa | - | - | - | - |
* Rain since midnight (hover to see other rain measurements)
** Current wind speed in m/s (hover to see current wind gust speed)